Time;durP1;ratioP1;P1;durP2;ratioP2;P2;SDS_P1;SDS_P2;PMS_P1;PMS_P2;Temp;Humidity;BMP_temperature;BMP_pressure;BME280_temperature;BME280_humidity;BME280_pressure;Samples;Min_cycle;Max_cycle;Signal;HPM_P1;HPM_P2
2021/01/06 00:00:56;;;;;;;17.80;13.47;;;;;;;;;;2083683;28;20201;-60
2021/01/06 00:01:56;;;;;;;16.43;13.77;;;;;;;;;;2088031;28;20244;-58
2021/01/06 00:02:57;;;;;;;17.93;13.50;;;;;;;;;;2087041;28;20640;-58
2021/01/06 00:03:57;;;;;;;15.33;13.73;;;;;;;;;;2080435;28;20672;-58
2021/01/06 00:04:57;;;;;;;14.90;12.40;;;;;;;;;;2073007;28;20181;-59
2021/01/06 00:05:59;;;;;;;15.90;13.50;;;;;;;;;;2076542;28;20181;-56
2021/01/06 00:06:59;;;;;;;15.90;12.53;;;;;;;;;;2078842;28;20191;-55
2021/01/06 00:07:59;;;;;;;14.80;13.17;;;;;;;;;;2080497;28;20184;-61
2021/01/06 00:08:59;;;;;;;17.77;13.00;;;;;;;;;;2087380;28;20202;-56
2021/01/06 00:10:00;;;;;;;16.90;13.50;;;;;;;;;;2085695;28;20233;-60
2021/01/06 00:11:00;;;;;;;14.87;12.90;;;;;;;;;;2086973;28;20172;-60
2021/01/06 00:12:00;;;;;;;14.80;13.13;;;;;;;;;;2089122;28;20259;-58
2021/01/06 00:13:01;;;;;;;16.97;13.10;;;;;;;;;;2079727;28;20204;-59
2021/01/06 00:14:03;;;;;;;16.80;12.63;;;;;;;;;;2076599;28;20275;-59
2021/01/06 00:15:04;;;;;;;17.30;14.70;;;;;;;;;;2087318;28;20241;-58
2021/01/06 00:16:04;;;;;;;16.80;12.53;;;;;;;;;;2086967;28;20207;-60
2021/01/06 00:17:04;;;;;;;15.20;12.40;;;;;;;;;;2081427;28;20192;-59
2021/01/06 00:18:05;;;;;;;14.17;12.67;;;;;;;;;;2084386;28;20176;-60
2021/01/06 00:19:06;;;;;;;15.67;12.13;;;;;;;;;;2088477;28;20250;-60
2021/01/06 00:20:08;;;;;;;18.17;13.13;;;;;;;;;;2089938;28;20210;-59
2021/01/06 00:21:10;;;;;;;15.97;14.17;;;;;;;;;;2080161;28;20177;-60
2021/01/06 00:22:10;;;;;;;13.27;11.87;;;;;;;;;;2081208;28;20231;-60
2021/01/06 00:23:11;;;;;;;14.70;12.67;;;;;;;;;;2085660;28;20230;-57
2021/01/06 00:24:11;;;;;;;15.90;12.13;;;;;;;;;;2081143;28;20263;-61
2021/01/06 00:25:16;;;;;;;13.27;11.83;;;;;;;;;;2079591;28;20184;-59
2021/01/06 00:26:16;;;;;;;13.50;11.73;;;;;;;;;;2085297;28;20252;-57
2021/01/06 00:27:16;;;;;;;15.57;12.50;;;;;;;;;;2086731;28;20653;-58
2021/01/06 00:28:18;;;;;;;15.77;12.23;;;;;;;;;;2089150;28;20493;-59
2021/01/06 00:29:18;;;;;;;15.50;12.33;;;;;;;;;;2087263;28;20176;-60
2021/01/06 00:30:18;;;;;;;15.33;12.33;;;;;;;;;;2090064;28;20696;-59
2021/01/06 00:31:18;;;;;;;14.70;12.17;;;;;;;;;;2087342;28;20178;-60
2021/01/06 00:32:19;;;;;;;13.17;11.43;;;;;;;;;;2084623;28;20199;-60
2021/01/06 00:33:24;;;;;;;16.07;13.63;;;;;;;;;;2102913;22;20209;-57
2021/01/06 00:34:24;;;;;;;15.13;12.73;;;;;;;;;;2086981;28;20183;-56
2021/01/06 00:35:25;;;;;;;15.13;13.33;;;;;;;;;;2081677;28;20542;-56
2021/01/06 00:36:27;;;;;;;17.77;12.53;;;;;;;;;;2082490;28;20318;-57
2021/01/06 00:37:27;;;;;;;17.23;12.27;;;;;;;;;;2083644;28;20180;-56
2021/01/06 00:38:28;;;;;;;16.00;12.77;;;;;;;;;;2087279;28;20198;-56
2021/01/06 00:39:28;;;;;;;15.50;13.00;;;;;;;;;;2089225;28;20187;-57
2021/01/06 00:40:30;;;;;;;14.37;11.97;;;;;;;;;;2091179;28;20253;-56
2021/01/06 00:41:31;;;;;;;15.43;13.27;;;;;;;;;;2084476;28;20173;-58
2021/01/06 00:42:34;;;;;;;13.40;12.00;;;;;;;;;;2088195;28;20202;-57
2021/01/06 00:43:34;;;;;;;14.53;12.47;;;;;;;;;;2079437;28;20777;-56
2021/01/06 00:44:34;;;;;;;15.93;12.17;;;;;;;;;;2079230;28;20315;-57
2021/01/06 00:45:34;;;;;;;15.63;11.93;;;;;;;;;;2090669;28;20187;-58
2021/01/06 00:46:36;;;;;;;16.27;12.70;;;;;;;;;;2082724;28;20287;-56
2021/01/06 00:47:36;;;;;;;15.43;12.80;;;;;;;;;;2082521;28;20169;-55
2021/01/06 00:48:37;;;;;;;13.23;11.23;;;;;;;;;;2091065;28;20558;-57
2021/01/06 00:49:37;;;;;;;14.60;11.93;;;;;;;;;;2087680;28;20256;-57
2021/01/06 00:50:39;;;;;;;14.47;11.90;;;;;;;;;;2082449;28;20543;-58
2021/01/06 00:51:40;;;;;;;13.50;12.00;;;;;;;;;;2074107;28;20189;-56
2021/01/06 00:52:41;;;;;;;14.10;11.10;;;;;;;;;;2074667;28;20184;-58
2021/01/06 00:53:44;;;;;;;14.83;13.10;;;;;;;;;;2074104;28;20681;-57
2021/01/06 00:54:47;;;;;;;14.47;11.80;;;;;;;;;;2082054;28;20172;-56
2021/01/06 00:55:47;;;;;;;14.23;11.70;;;;;;;;;;2079224;28;20696;-56
2021/01/06 00:56:49;;;;;;;14.13;11.70;;;;;;;;;;2081779;28;20548;-57
2021/01/06 00:57:51;;;;;;;15.40;12.27;;;;;;;;;;2081756;28;20238;-59
2021/01/06 00:58:52;;;;;;;13.43;12.00;;;;;;;;;;2076033;28;20545;-56
2021/01/06 00:59:52;;;;;;;16.23;12.73;;;;;;;;;;2079445;28;20176;-52
2021/01/06 01:00:53;;;;;;;15.83;12.57;;;;;;;;;;2074473;28;20209;-52
2021/01/06 01:01:54;;;;;;;13.83;12.13;;;;;;;;;;2081038;28;20658;-52
2021/01/06 01:02:55;;;;;;;15.27;11.90;;;;;;;;;;2072155;28;20173;-54
2021/01/06 01:03:57;;;;;;;14.63;11.93;;;;;;;;;;2075411;28;20196;-52
2021/01/06 01:04:57;;;;;;;15.37;12.87;;;;;;;;;;2087648;28;20194;-52
2021/01/06 01:05:57;;;;;;;15.40;12.40;;;;;;;;;;2081123;28;20226;-52
2021/01/06 01:06:58;;;;;;;15.57;12.37;;;;;;;;;;2074454;28;20261;-55
2021/01/06 01:07:59;;;;;;;18.83;13.37;;;;;;;;;;2080804;28;20585;-51
2021/01/06 01:08:59;;;;;;;13.67;12.17;;;;;;;;;;2087288;28;20620;-52
2021/01/06 01:09:59;;;;;;;16.63;12.73;;;;;;;;;;2074703;28;20189;-51
2021/01/06 01:11:00;;;;;;;15.80;13.23;;;;;;;;;;2080336;28;20211;-53
2021/01/06 01:12:02;;;;;;;16.67;12.67;;;;;;;;;;2089038;28;20183;-52
2021/01/06 01:13:04;;;;;;;15.10;12.73;;;;;;;;;;2086082;28;20188;-54
2021/01/06 01:14:04;;;;;;;17.13;13.37;;;;;;;;;;2086503;28;20183;-56
2021/01/06 01:15:06;;;;;;;17.07;13.23;;;;;;;;;;2085511;28;20603;-53
2021/01/06 01:16:06;;;;;;;15.23;12.53;;;;;;;;;;2084865;28;20288;-53
2021/01/06 01:17:08;;;;;;;17.27;13.47;;;;;;;;;;2076238;28;20207;-55
2021/01/06 01:18:11;;;;;;;17.20;12.83;;;;;;;;;;2075311;28;20172;-53
2021/01/06 01:19:11;;;;;;;20.60;13.53;;;;;;;;;;2087325;28;20179;-54
2021/01/06 01:20:12;;;;;;;18.83;13.17;;;;;;;;;;2080613;28;20671;-52
2021/01/06 01:21:15;;;;;;;15.63;12.87;;;;;;;;;;2071844;28;20180;-52
2021/01/06 01:22:16;;;;;;;18.27;12.83;;;;;;;;;;2077131;28;20168;-51
2021/01/06 01:23:17;;;;;;;15.30;12.67;;;;;;;;;;2084025;28;20194;-51
2021/01/06 01:24:17;;;;;;;16.17;13.20;;;;;;;;;;2076757;28;20265;-51
2021/01/06 01:25:20;;;;;;;15.07;13.17;;;;;;;;;;2075709;28;20225;-53
2021/01/06 01:26:20;;;;;;;14.67;12.50;;;;;;;;;;2086030;28;20178;-53
2021/01/06 01:27:20;;;;;;;16.13;13.07;;;;;;;;;;2088921;28;20888;-53
2021/01/06 01:28:21;;;;;;;16.60;13.30;;;;;;;;;;2087160;28;20535;-54
2021/01/06 01:29:21;;;;;;;15.90;12.80;;;;;;;;;;2087386;28;20214;-54
2021/01/06 01:30:23;;;;;;;16.40;12.70;;;;;;;;;;2086742;28;20182;-54
2021/01/06 01:31:31;;;;;;;17.70;12.97;;;;;;;;;;2087522;28;20175;-52
2021/01/06 01:32:31;;;;;;;14.07;11.93;;;;;;;;;;2086133;28;20698;-56
2021/01/06 01:33:32;;;;;;;16.53;13.67;;;;;;;;;;2087587;28;20351;-54
2021/01/06 01:34:32;;;;;;;15.60;12.80;;;;;;;;;;2087332;28;20260;-52
2021/01/06 01:35:33;;;;;;;14.43;12.27;;;;;;;;;;2088914;28;20171;-53
2021/01/06 01:36:33;;;;;;;15.37;11.80;;;;;;;;;;2086311;28;20183;-53
2021/01/06 01:37:33;;;;;;;14.33;11.93;;;;;;;;;;2088462;28;20226;-52
2021/01/06 01:38:33;;;;;;;15.83;11.87;;;;;;;;;;2079762;28;20195;-55
2021/01/06 01:39:34;;;;;;;14.90;12.13;;;;;;;;;;2077552;28;20199;-56
2021/01/06 01:40:36;;;;;;;16.67;12.10;;;;;;;;;;2085390;28;20218;-55
2021/01/06 01:41:36;;;;;;;13.73;11.23;;;;;;;;;;2089384;28;20172;-56
2021/01/06 01:42:37;;;;;;;17.37;12.90;;;;;;;;;;2084281;28;20532;-52
2021/01/06 01:43:37;;;;;;;14.90;12.30;;;;;;;;;;2085601;28;20191;-57
2021/01/06 01:44:56;;;;;;;13.67;11.73;;;;;;;;;;2079573;28;20280;-55
2021/01/06 01:45:56;;;;;;;13.10;11.50;;;;;;;;;;2077277;28;20268;-54
2021/01/06 01:47:01;;;;;;;13.37;11.97;;;;;;;;;;2088368;28;20655;-53
2021/01/06 01:48:03;;;;;;;13.23;11.30;;;;;;;;;;2086421;28;20176;-51
2021/01/06 01:49:05;;;;;;;13.37;11.97;;;;;;;;;;2083468;28;20172;-49
2021/01/06 01:50:06;;;;;;;14.13;11.93;;;;;;;;;;2080263;28;20235;-52
2021/01/06 01:51:18;;;;;;;13.43;11.97;;;;;;;;;;2077228;28;20692;-53
2021/01/06 01:52:30;;;;;;;13.97;12.47;;;;;;;;;;2075635;28;20637;-52
2021/01/06 01:53:36;;;;;;;12.30;10.57;;;;;;;;;;2074937;28;20196;-56
2021/01/06 01:54:36;;;;;;;12.73;11.10;;;;;;;;;;2082501;28;20191;-55
2021/01/06 01:55:37;;;;;;;12.37;11.07;;;;;;;;;;2092709;28;20163;-55
2021/01/06 01:56:45;;;;;;;12.83;11.10;;;;;;;;;;2082281;28;20763;-54
2021/01/06 01:57:50;;;;;;;12.83;11.07;;;;;;;;;;2074890;28;20180;-54
2021/01/06 01:58:52;;;;;;;13.23;11.10;;;;;;;;;;2074634;28;20177;-53
2021/01/06 01:59:56;;;;;;;11.87;10.30;;;;;;;;;;2074057;28;20181;-55
2021/01/06 02:00:56;;;;;;;11.70;10.50;;;;;;;;;;2080806;28;20200;-52
2021/01/06 02:01:59;;;;;;;13.20;10.90;;;;;;;;;;2077204;28;20271;-55
2021/01/06 02:03:05;;;;;;;12.23;11.03;;;;;;;;;;2085224;28;20172;-58
2021/01/06 02:04:09;;;;;;;13.13;11.27;;;;;;;;;;2086070;28;20235;-55
2021/01/06 02:05:13;;;;;;;11.40;10.20;;;;;;;;;;2082639;28;20263;-52
2021/01/06 02:06:16;;;;;;;12.90;11.30;;;;;;;;;;2075263;28;20181;-55
2021/01/06 02:07:18;;;;;;;12.13;10.83;;;;;;;;;;2087754;28;20187;-54
2021/01/06 02:08:21;;;;;;;11.33;9.97;;;;;;;;;;2091174;28;20248;-54
2021/01/06 02:09:25;;;;;;;13.10;10.67;;;;;;;;;;2088502;28;20246;-56
2021/01/06 02:10:30;;;;;;;12.53;11.20;;;;;;;;;;2090935;28;20176;-57
2021/01/06 02:11:38;;;;;;;13.17;10.73;;;;;;;;;;2091404;28;20221;-54
2021/01/06 02:12:44;;;;;;;13.17;10.60;;;;;;;;;;2089805;28;20176;-54
2021/01/06 02:13:55;;;;;;;11.23;10.03;;;;;;;;;;2088043;28;20211;-55
2021/01/06 02:15:07;;;;;;;13.53;10.37;;;;;;;;;;2082265;28;20184;-53
2021/01/06 02:16:10;;;;;;;13.13;10.97;;;;;;;;;;2075661;28;20197;-51
2021/01/06 02:17:12;;;;;;;14.10;11.80;;;;;;;;;;2083522;28;20227;-51
2021/01/06 02:18:13;;;;;;;11.93;10.07;;;;;;;;;;2087307;28;20180;-63
2021/01/06 02:19:15;;;;;;;11.67;9.63;;;;;;;;;;2082161;28;20180;-53
2021/01/06 02:20:17;;;;;;;11.43;10.23;;;;;;;;;;2082650;28;20172;-56
2021/01/06 02:21:19;;;;;;;10.90;9.73;;;;;;;;;;2087792;28;20733;-56
2021/01/06 02:22:20;;;;;;;11.47;10.33;;;;;;;;;;2087308;28;20172;-56
2021/01/06 02:23:20;;;;;;;13.73;10.47;;;;;;;;;;2084427;28;20180;-57
2021/01/06 02:24:21;;;;;;;10.70;9.63;;;;;;;;;;2090045;28;20187;-54
2021/01/06 02:25:23;;;;;;;11.53;10.33;;;;;;;;;;2087045;28;20168;-56
2021/01/06 02:26:27;;;;;;;14.43;11.03;;;;;;;;;;2077264;28;20176;-55
2021/01/06 02:27:27;;;;;;;12.63;10.40;;;;;;;;;;2077164;28;20172;-54
2021/01/06 02:28:28;;;;;;;13.90;10.30;;;;;;;;;;2089444;28;20200;-56
2021/01/06 02:29:28;;;;;;;11.63;10.43;;;;;;;;;;2090380;28;20187;-55
2021/01/06 02:30:28;;;;;;;12.33;10.40;;;;;;;;;;2085228;28;20191;-51
2021/01/06 02:31:29;;;;;;;12.60;10.53;;;;;;;;;;2090830;28;20214;-57
2021/01/06 02:32:29;;;;;;;11.07;9.87;;;;;;;;;;2090865;28;20191;-52
2021/01/06 02:33:30;;;;;;;10.87;9.77;;;;;;;;;;2087424;28;20274;-52
2021/01/06 02:34:30;;;;;;;10.47;9.40;;;;;;;;;;2083284;28;20183;-51
2021/01/06 02:35:30;;;;;;;11.60;9.80;;;;;;;;;;2091548;28;20182;-55
2021/01/06 02:36:31;;;;;;;12.50;11.20;;;;;;;;;;2087119;28;20511;-57
2021/01/06 02:37:31;;;;;;;11.60;10.40;;;;;;;;;;2092523;28;20180;-58
2021/01/06 02:38:32;;;;;;;13.43;10.63;;;;;;;;;;2087244;28;20179;-59
2021/01/06 02:39:33;;;;;;;12.50;10.93;;;;;;;;;;2091540;28;20183;-58
2021/01/06 02:40:33;;;;;;;11.30;10.10;;;;;;;;;;2087738;28;20207;-59
2021/01/06 02:41:33;;;;;;;11.77;10.53;;;;;;;;;;2091849;28;20254;-59
2021/01/06 02:42:34;;;;;;;11.33;10.20;;;;;;;;;;2091852;28;20216;-57
2021/01/06 02:43:34;;;;;;;12.00;10.77;;;;;;;;;;2091129;28;20190;-50
2021/01/06 02:44:34;;;;;;;12.77;10.97;;;;;;;;;;2090810;28;20199;-56
2021/01/06 02:45:34;;;;;;;12.67;11.47;;;;;;;;;;2093207;28;20349;-57
2021/01/06 02:46:35;;;;;;;13.83;10.73;;;;;;;;;;2088328;28;20210;-56
2021/01/06 02:47:36;;;;;;;11.80;10.00;;;;;;;;;;2092035;28;20207;-58
2021/01/06 02:48:37;;;;;;;15.23;11.17;;;;;;;;;;2085102;28;20172;-55
2021/01/06 02:49:38;;;;;;;12.43;10.77;;;;;;;;;;2089120;28;20578;-56
2021/01/06 02:50:41;;;;;;;13.10;11.70;;;;;;;;;;2096847;28;20187;-57
2021/01/06 02:51:53;;;;;;;12.20;10.53;;;;;;;;;;2093674;28;20251;-57
2021/01/06 02:52:54;;;;;;;13.73;11.53;;;;;;;;;;2091329;28;20286;-55
2021/01/06 02:53:56;;;;;;;12.77;10.70;;;;;;;;;;2092898;28;20299;-58
2021/01/06 02:54:56;;;;;;;11.23;10.10;;;;;;;;;;2095388;28;20183;-58
2021/01/06 02:55:57;;;;;;;12.93;10.43;;;;;;;;;;2091222;28;20193;-58
2021/01/06 02:56:59;;;;;;;14.53;11.30;;;;;;;;;;2090271;28;20211;-57
2021/01/06 02:58:03;;;;;;;13.77;11.67;;;;;;;;;;2096060;28;20184;-56
2021/01/06 02:59:04;;;;;;;13.03;10.77;;;;;;;;;;2093694;28;20180;-58
2021/01/06 03:00:05;;;;;;;15.83;11.53;;;;;;;;;;2090979;28;20253;-55
2021/01/06 03:01:10;;;;;;;16.97;11.60;;;;;;;;;;2079661;28;20189;-56
2021/01/06 03:02:12;;;;;;;13.77;11.63;;;;;;;;;;2079569;28;20173;-58
2021/01/06 03:03:15;;;;;;;12.23;10.87;;;;;;;;;;2087273;28;20215;-58
2021/01/06 03:04:17;;;;;;;15.63;13.07;;;;;;;;;;2092680;28;20271;-60
2021/01/06 03:05:47;;;;;;;18.37;12.43;;;;;;;;;;2091194;28;20204;-55
2021/01/06 03:06:56;;;;;;;13.77;11.17;;;;;;;;;;2080099;28;20196;-56
2021/01/06 03:07:56;;;;;;;15.47;11.17;;;;;;;;;;2094409;28;20187;-57
2021/01/06 03:08:56;;;;;;;15.17;11.47;;;;;;;;;;2096674;28;20195;-57
2021/01/06 03:09:57;;;;;;;14.57;11.70;;;;;;;;;;2091865;28;20270;-53
2021/01/06 03:10:57;;;;;;;15.53;11.93;;;;;;;;;;2087593;28;20206;-56
2021/01/06 03:11:59;;;;;;;14.03;12.13;;;;;;;;;;2085375;28;20180;-59
2021/01/06 03:12:59;;;;;;;13.20;11.17;;;;;;;;;;2090796;28;20198;-54
2021/01/06 03:14:00;;;;;;;15.03;12.23;;;;;;;;;;2092539;28;20297;-58
2021/01/06 03:15:00;;;;;;;15.53;11.97;;;;;;;;;;2096109;28;20267;-57
2021/01/06 03:16:01;;;;;;;14.27;11.47;;;;;;;;;;2095560;28;20200;-57
2021/01/06 03:17:03;;;;;;;16.13;11.57;;;;;;;;;;2084854;28;20502;-52
2021/01/06 03:18:03;;;;;;;16.30;11.00;;;;;;;;;;2086168;28;20179;-55
2021/01/06 03:19:04;;;;;;;11.67;10.47;;;;;;;;;;2086479;28;20208;-52
2021/01/06 03:20:09;;;;;;;13.90;10.97;;;;;;;;;;2077444;28;20280;-58
2021/01/06 03:21:09;;;;;;;12.17;10.37;;;;;;;;;;2085587;28;20215;-55
2021/01/06 03:22:11;;;;;;;12.37;11.00;;;;;;;;;;2094157;28;20167;-54
2021/01/06 03:23:14;;;;;;;12.63;10.60;;;;;;;;;;2091018;28;20218;-58
2021/01/06 03:24:17;;;;;;;14.20;11.20;;;;;;;;;;2087519;28;20179;-58
2021/01/06 03:25:17;;;;;;;14.20;10.47;;;;;;;;;;2090477;28;20194;-57
2021/01/06 03:26:19;;;;;;;12.13;10.83;;;;;;;;;;2086601;28;20528;-57
2021/01/06 03:27:20;;;;;;;11.80;10.10;;;;;;;;;;2077726;28;20230;-56
2021/01/06 03:28:21;;;;;;;13.17;10.57;;;;;;;;;;2085554;28;20426;-57
2021/01/06 03:29:22;;;;;;;13.20;10.40;;;;;;;;;;2095202;28;20233;-56
2021/01/06 03:30:24;;;;;;;13.67;10.60;;;;;;;;;;2096183;28;20179;-58
2021/01/06 03:31:30;;;;;;;12.47;10.87;;;;;;;;;;2095867;28;20258;-57
2021/01/06 03:32:37;;;;;;;13.17;10.70;;;;;;;;;;2087738;28;20179;-57
2021/01/06 03:33:42;;;;;;;14.00;11.07;;;;;;;;;;2093602;28;20203;-54
2021/01/06 03:34:47;;;;;;;13.03;10.10;;;;;;;;;;2091896;28;20170;-53
2021/01/06 03:35:50;;;;;;;12.87;10.40;;;;;;;;;;2081028;28;20698;-59
2021/01/06 03:36:54;;;;;;;11.43;10.03;;;;;;;;;;2075016;28;20180;-61
2021/01/06 03:37:57;;;;;;;12.83;10.43;;;;;;;;;;2083749;28;20180;-57
2021/01/06 03:39:00;;;;;;;12.87;11.00;;;;;;;;;;2088646;28;20203;-56
2021/01/06 03:40:06;;;;;;;14.33;11.17;;;;;;;;;;2091419;28;20208;-57
2021/01/06 03:41:07;;;;;;;12.63;10.60;;;;;;;;;;2082000;28;20230;-58
2021/01/06 03:42:07;;;;;;;11.03;9.97;;;;;;;;;;2076380;28;20185;-57
2021/01/06 03:43:09;;;;;;;12.20;10.43;;;;;;;;;;2077549;28;20184;-56
2021/01/06 03:44:11;;;;;;;11.97;10.10;;;;;;;;;;2087006;28;20176;-56
2021/01/06 03:45:14;;;;;;;11.97;10.80;;;;;;;;;;2089983;28;20710;-56
2021/01/06 03:46:23;;;;;;;12.40;10.20;;;;;;;;;;2088677;28;20437;-54
2021/01/06 03:47:25;;;;;;;11.77;9.73;;;;;;;;;;2092920;28;20175;-56
2021/01/06 03:48:31;;;;;;;13.60;10.10;;;;;;;;;;2093182;28;20172;-58
2021/01/06 03:49:38;;;;;;;12.93;10.27;;;;;;;;;;2088933;28;20256;-56
2021/01/06 03:50:41;;;;;;;12.57;10.87;;;;;;;;;;2093129;28;20191;-58
2021/01/06 03:51:54;;;;;;;10.50;9.33;;;;;;;;;;2085061;28;20228;-59
2021/01/06 03:53:14;;;;;;;20.17;15.57;;;;;;;;;;2085089;28;20183;-57
2021/01/06 03:54:25;;;;;;;12.90;10.77;;;;;;;;;;2076220;28;20786;-57
2021/01/06 03:55:41;;;;;;;11.30;9.70;;;;;;;;;;2074888;28;20250;-55
2021/01/06 03:56:42;;;;;;;13.23;10.30;;;;;;;;;;2083827;28;20440;-56
2021/01/06 03:57:43;;;;;;;12.27;10.73;;;;;;;;;;2084492;28;20696;-56
2021/01/06 03:58:59;;;;;;;11.40;10.20;;;;;;;;;;2090971;28;20565;-56
2021/01/06 03:59:59;;;;;;;11.50;10.13;;;;;;;;;;2086583;28;20290;-55
2021/01/06 04:01:19;;;;;;;14.93;10.37;;;;;;;;;;2090433;28;20208;-56
2021/01/06 04:02:21;;;;;;;10.97;9.67;;;;;;;;;;2074207;28;20181;-55
2021/01/06 04:03:40;;;;;;;11.37;9.83;;;;;;;;;;2079753;28;20192;-55
2021/01/06 04:04:40;;;;;;;10.50;9.40;;;;;;;;;;2090470;28;20642;-56
2021/01/06 04:05:40;;;;;;;11.83;10.57;;;;;;;;;;2082495;28;20176;-56
2021/01/06 04:06:43;;;;;;;13.63;10.87;;;;;;;;;;2082559;28;20176;-58
2021/01/06 04:07:44;;;;;;;11.03;9.90;;;;;;;;;;2082514;28;20164;-56
2021/01/06 04:08:50;;;;;;;11.43;10.03;;;;;;;;;;2081606;28;20183;-55
2021/01/06 04:09:53;;;;;;;10.87;9.77;;;;;;;;;;2083858;28;20164;-57
2021/01/06 04:10:54;;;;;;;14.37;11.13;;;;;;;;;;2087217;28;20243;-56
2021/01/06 04:12:01;;;;;;;14.47;11.00;;;;;;;;;;2075591;28;20261;-54
2021/01/06 04:13:01;;;;;;;11.43;10.23;;;;;;;;;;2081149;28;20200;-58
2021/01/06 04:14:02;;;;;;;19.07;14.47;;;;;;;;;;2082225;28;20195;-57
2021/01/06 04:15:03;;;;;;;12.90;11.07;;;;;;;;;;2088016;28;20233;-57
2021/01/06 04:16:04;;;;;;;13.60;10.87;;;;;;;;;;2080280;28;20288;-57
2021/01/06 04:17:16;;;;;;;14.03;10.83;;;;;;;;;;2079122;28;20185;-59
2021/01/06 04:18:16;;;;;;;15.37;11.80;;;;;;;;;;2092370;28;20226;-59
2021/01/06 04:19:18;;;;;;;11.50;9.83;;;;;;;;;;2086156;28;20179;-54
2021/01/06 04:20:32;;;;;;;11.40;9.87;;;;;;;;;;2090078;28;20186;-50
2021/01/06 04:21:32;;;;;;;11.03;9.23;;;;;;;;;;2085452;28;20647;-53
2021/01/06 04:22:36;;;;;;;12.70;10.83;;;;;;;;;;2085656;28;20176;-54
2021/01/06 04:23:36;;;;;;;12.33;10.10;;;;;;;;;;2086682;28;20680;-57
2021/01/06 04:24:36;;;;;;;11.43;10.23;;;;;;;;;;2081770;28;20410;-56
2021/01/06 04:25:36;;;;;;;15.57;10.67;;;;;;;;;;2086076;28;20603;-56
2021/01/06 04:26:38;;;;;;;14.23;11.87;;;;;;;;;;2088610;28;20622;-56
2021/01/06 04:27:39;;;;;;;13.93;10.97;;;;;;;;;;2080846;28;20183;-55
2021/01/06 04:28:39;;;;;;;11.63;10.43;;;;;;;;;;2083089;28;20182;-57
2021/01/06 04:29:40;;;;;;;13.87;11.00;;;;;;;;;;2089950;28;20184;-57
2021/01/06 04:30:43;;;;;;;12.87;10.13;;;;;;;;;;2076885;28;20280;-55
2021/01/06 04:31:43;;;;;;;13.80;10.63;;;;;;;;;;2081415;28;20184;-55
2021/01/06 04:32:43;;;;;;;12.33;9.97;;;;;;;;;;2089846;28;20179;-54
2021/01/06 04:33:46;;;;;;;15.13;11.80;;;;;;;;;;2089135;28;20750;-53
2021/01/06 04:34:46;;;;;;;12.77;10.80;;;;;;;;;;2081185;28;20164;-53
2021/01/06 04:35:47;;;;;;;17.80;11.47;;;;;;;;;;2081358;28;20187;-55
2021/01/06 04:36:47;;;;;;;13.43;10.67;;;;;;;;;;2081237;28;20180;-54
2021/01/06 04:37:48;;;;;;;14.33;10.80;;;;;;;;;;2080733;28;20175;-55
2021/01/06 04:38:49;;;;;;;12.53;11.23;;;;;;;;;;2080239;28;20184;-55
2021/01/06 04:39:50;;;;;;;12.33;10.80;;;;;;;;;;2073948;28;20257;-55
2021/01/06 04:40:52;;;;;;;12.57;10.23;;;;;;;;;;2079860;28;20242;-54
2021/01/06 04:41:56;;;;;;;12.27;10.83;;;;;;;;;;2074408;28;20188;-54
2021/01/06 04:42:58;;;;;;;12.97;11.57;;;;;;;;;;2078554;28;20208;-55
2021/01/06 04:44:17;;;;;;;13.90;11.13;;;;;;;;;;2078947;28;20690;-56
2021/01/06 04:45:25;;;;;;;14.70;11.30;;;;;;;;;;2085309;28;20586;-54
2021/01/06 04:46:48;;;;;;;13.10;10.43;;;;;;;;;;2089147;28;20183;-53
2021/01/06 04:47:56;;;;;;;13.90;10.90;;;;;;;;;;2080585;28;20165;-58
2021/01/06 04:49:06;;;;;;;12.07;10.47;;;;;;;;;;2080492;28;20409;-55
2021/01/06 04:50:24;;;;;;;14.10;10.73;;;;;;;;;;2081060;28;20263;-53
2021/01/06 04:51:29;;;;;;;15.03;11.47;;;;;;;;;;2084398;28;20648;-53
2021/01/06 04:52:52;;;;;;;13.10;11.00;;;;;;;;;;2083655;28;20176;-54
2021/01/06 04:54:18;;;;;;;13.97;10.13;;;;;;;;;;2083159;28;20204;-56
2021/01/06 04:55:37;;;;;;;14.23;10.97;;;;;;;;;;2066706;28;20265;-55
2021/01/06 04:56:37;;;;;;;13.20;10.83;;;;;;;;;;2092078;28;20201;-57
2021/01/06 04:57:47;;;;;;;12.53;10.87;;;;;;;;;;2084397;28;20180;-56
2021/01/06 04:59:05;;;;;;;14.03;11.13;;;;;;;;;;2081910;28;20714;-55
2021/01/06 05:00:08;;;;;;;11.77;10.57;;;;;;;;;;2082081;28;20210;-54
2021/01/06 05:01:26;;;;;;;12.33;9.80;;;;;;;;;;2087310;28;20262;-55
2021/01/06 05:02:36;;;;;;;13.03;10.83;;;;;;;;;;2080436;28;20179;-57
2021/01/06 05:03:59;;;;;;;12.43;11.03;;;;;;;;;;2084277;28;20195;-56
2021/01/06 05:05:22;;;;;;;14.00;11.63;;;;;;;;;;2052683;28;20710;-53
2021/01/06 05:06:40;;;;;;;14.37;11.37;;;;;;;;;;2090159;28;20178;-57
2021/01/06 05:07:41;;;;;;;13.27;11.20;;;;;;;;;;2087758;28;20166;-57
2021/01/06 05:08:42;;;;;;;14.93;11.20;;;;;;;;;;2082752;28;20202;-55
2021/01/06 05:10:03;;;;;;;12.90;11.07;;;;;;;;;;2070031;28;20188;-53
2021/01/06 05:11:18;;;;;;;11.43;10.23;;;;;;;;;;2072414;28;20196;-58
2021/01/06 05:12:38;;;;;;;13.73;11.27;;;;;;;;;;2088709;28;20403;-54
2021/01/06 05:13:52;;;;;;;14.17;10.23;;;;;;;;;;2087897;28;20195;-57
2021/01/06 05:14:56;;;;;;;14.50;10.60;;;;;;;;;;2087031;28;20175;-57
2021/01/06 05:15:58;;;;;;;15.10;10.73;;;;;;;;;;2093973;28;20179;-55
2021/01/06 05:16:59;;;;;;;12.27;10.87;;;;;;;;;;2090505;28;20397;-52
2021/01/06 05:18:00;;;;;;;13.10;10.97;;;;;;;;;;2085615;28;20183;-56
2021/01/06 05:19:02;;;;;;;13.37;10.70;;;;;;;;;;2086153;28;20258;-57
2021/01/06 05:20:03;;;;;;;14.17;11.13;;;;;;;;;;2091829;28;20180;-58
2021/01/06 05:21:07;;;;;;;12.93;10.60;;;;;;;;;;2079034;28;20555;-55
2021/01/06 05:22:09;;;;;;;11.77;10.20;;;;;;;;;;2083651;28;20184;-56
2021/01/06 05:23:15;;;;;;;13.73;11.37;;;;;;;;;;2087127;28;21365;-56
2021/01/06 05:24:19;;;;;;;12.87;9.97;;;;;;;;;;2091481;28;20172;-58
2021/01/06 05:25:20;;;;;;;11.67;10.27;;;;;;;;;;2092666;28;20186;-58
2021/01/06 05:26:20;;;;;;;11.30;9.93;;;;;;;;;;2090723;28;20280;-56
2021/01/06 05:27:25;;;;;;;12.67;10.40;;;;;;;;;;2080547;28;20187;-56
2021/01/06 05:28:25;;;;;;;13.20;10.17;;;;;;;;;;2078949;28;20241;-61
2021/01/06 05:29:27;;;;;;;13.57;10.07;;;;;;;;;;2084842;28;20187;-57
2021/01/06 05:30:32;;;;;;;12.00;9.63;;;;;;;;;;2093910;28;20168;-56
2021/01/06 05:31:32;;;;;;;12.60;9.23;;;;;;;;;;2095183;28;20184;-61
2021/01/06 05:32:37;;;;;;;10.80;9.60;;;;;;;;;;2095452;28;20183;-57
2021/01/06 05:33:39;;;;;;;13.47;10.67;;;;;;;;;;2087489;28;20207;-58
2021/01/06 05:34:40;;;;;;;13.83;10.23;;;;;;;;;;2081891;28;20172;-56
2021/01/06 05:35:45;;;;;;;10.93;9.90;;;;;;;;;;2085954;28;20256;-58
2021/01/06 05:36:46;;;;;;;10.90;9.43;;;;;;;;;;2093752;28;20241;-54
2021/01/06 05:38:00;;;;;;;12.73;9.80;;;;;;;;;;2092969;28;20226;-56
2021/01/06 05:39:01;;;;;;;9.83;8.77;;;;;;;;;;2085849;28;20793;-56
2021/01/06 05:40:12;;;;;;;10.53;9.07;;;;;;;;;;2079527;28;20190;-54
2021/01/06 05:41:12;;;;;;;11.47;9.60;;;;;;;;;;2080544;28;20169;-55
2021/01/06 05:42:23;;;;;;;10.20;8.60;;;;;;;;;;2087240;28;20160;-55
2021/01/06 05:43:29;;;;;;;9.77;8.80;;;;;;;;;;2075699;28;20173;-54
2021/01/06 05:44:31;;;;;;;12.50;9.90;;;;;;;;;;2079446;28;20251;-54
2021/01/06 05:45:38;;;;;;;10.63;9.63;;;;;;;;;;2081085;28;20703;-59
2021/01/06 05:46:42;;;;;;;13.30;9.83;;;;;;;;;;2083438;28;20188;-56
2021/01/06 05:47:55;;;;;;;12.33;9.30;;;;;;;;;;2073610;28;20668;-52
2021/01/06 05:48:58;;;;;;;10.47;9.37;;;;;;;;;;2089407;28;20164;-53
2021/01/06 05:50:07;;;;;;;12.70;9.67;;;;;;;;;;2089477;28;20186;-54
2021/01/06 05:51:07;;;;;;;11.40;9.90;;;;;;;;;;2087057;28;20180;-53
2021/01/06 05:52:08;;;;;;;10.20;9.17;;;;;;;;;;2082152;28;20244;-57
2021/01/06 05:53:25;;;;;;;10.60;9.37;;;;;;;;;;2084978;28;20172;-53
2021/01/06 05:54:32;;;;;;;14.07;9.73;;;;;;;;;;2087872;28;20187;-55
2021/01/06 05:55:35;;;;;;;15.70;9.40;;;;;;;;;;2083604;28;20306;-52
2021/01/06 05:56:35;;;;;;;10.00;9.07;;;;;;;;;;2089044;28;20175;-55
2021/01/06 05:57:39;;;;;;;10.70;9.10;;;;;;;;;;2067538;28;20201;-55
2021/01/06 05:58:46;;;;;;;11.30;10.10;;;;;;;;;;2073738;28;20173;-53
2021/01/06 05:59:47;;;;;;;12.07;9.60;;;;;;;;;;2089240;28;20191;-53
2021/01/06 06:00:56;;;;;;;13.73;10.30;;;;;;;;;;2088285;28;20279;-54
2021/01/06 06:01:56;;;;;;;12.93;9.80;;;;;;;;;;2083645;28;20164;-57
2021/01/06 06:03:05;;;;;;;10.57;9.13;;;;;;;;;;2088099;28;20267;-53
2021/01/06 06:04:17;;;;;;;12.43;9.13;;;;;;;;;;2082892;28;20180;-51
2021/01/06 06:05:39;;;;;;;11.03;9.63;;;;;;;;;;2073451;28;20174;-56
2021/01/06 06:06:50;;;;;;;10.70;9.47;;;;;;;;;;2083975;28;20186;-52
2021/01/06 06:07:56;;;;;;;12.13;10.57;;;;;;;;;;2075691;28;20796;-55
2021/01/06 06:09:17;;;;;;;11.07;9.97;;;;;;;;;;2076406;28;20418;-53
2021/01/06 06:10:27;;;;;;;11.13;9.37;;;;;;;;;;2079790;28;20150;-56
2021/01/06 06:11:36;;;;;;;10.53;9.43;;;;;;;;;;2081494;28;20173;-52